Time;durP1;ratioP1;P1;durP2;ratioP2;P2;SDS_P1;SDS_P2;PMS_P1;PMS_P2;Temp;Humidity;BMP_temperature;BMP_pressure;BME280_temperature;BME280_humidity;BME280_pressure;Samples;Min_cycle;Max_cycle;Signal;HPM_P1;HPM_P2
2023/12/23 00:00:20;;;;;;;0.40;0.40;;;;;;;7.86;65.23;93464.38;5069540;28;20194;-68
2023/12/23 00:02:46;;;;;;;0.40;0.40;;;;;;;7.97;68.29;93451.25;5069405;28;20566;-68
2023/12/23 00:05:11;;;;;;;0.40;0.40;;;;;;;8.05;66.14;93450.09;5068770;28;20174;-68
2023/12/23 00:07:36;;;;;;;0.40;0.40;;;;;;;7.99;63.85;93465.94;5069537;28;20556;-67
2023/12/23 00:10:03;;;;;;;0.40;0.40;;;;;;;7.60;67.16;93444.66;5069101;28;20165;-69
2023/12/23 00:12:29;;;;;;;0.50;0.50;;;;;;;7.38;66.16;93447.03;5069007;28;20174;-68
2023/12/23 00:14:55;;;;;;;0.30;0.30;;;;;;;6.91;67.80;93427.03;5068436;28;20185;-69
2023/12/23 00:17:20;;;;;;;0.40;0.40;;;;;;;6.78;68.61;93428.81;5070244;28;20170;-67
2023/12/23 00:19:46;;;;;;;0.50;0.50;;;;;;;6.58;69.47;93430.06;5070524;28;20198;-67
2023/12/23 00:22:11;;;;;;;0.40;0.40;;;;;;;6.59;69.20;93408.94;5052115;28;20181;-67
2023/12/23 00:24:37;;;;;;;0.40;0.40;;;;;;;6.57;68.31;93373.63;5070566;28;20186;-67
2023/12/23 00:27:02;;;;;;;0.50;0.50;;;;;;;6.79;67.96;93400.84;5070540;28;20178;-67
2023/12/23 00:29:28;;;;;;;0.40;0.40;;;;;;;6.91;67.35;93409.53;5070696;28;20166;-67
2023/12/23 00:31:53;;;;;;;0.40;0.40;;;;;;;6.65;68.13;93436.03;5070671;28;20176;-67
2023/12/23 00:34:19;;;;;;;0.50;0.50;;;;;;;6.50;69.64;93425.97;5070685;28;20685;-67
2023/12/23 00:36:45;;;;;;;0.40;0.40;;;;;;;6.52;71.07;93428.34;5070709;28;20180;-67
2023/12/23 00:39:10;;;;;;;0.50;0.50;;;;;;;6.49;71.46;93436.66;5069961;28;20292;-67
2023/12/23 00:41:37;;;;;;;0.40;0.40;;;;;;;6.46;71.14;93430.06;5052797;28;20186;-67
2023/12/23 00:44:02;;;;;;;1.90;0.97;;;;;;;6.33;71.76;93432.81;5070695;28;20228;-67
2023/12/23 00:46:28;;;;;;;0.50;0.50;;;;;;;6.12;72.00;93407.16;5052564;28;20636;-67
2023/12/23 00:48:55;;;;;;;0.40;0.40;;;;;;;6.17;72.09;93404.69;5070592;28;20607;-66
2023/12/23 00:51:20;;;;;;;0.40;0.40;;;;;;;6.33;70.53;93404.06;5070565;28;20664;-66
2023/12/23 00:53:46;;;;;;;0.40;0.40;;;;;;;6.47;69.61;93415.16;5070334;28;20193;-66
2023/12/23 00:56:17;;;;;;;0.40;0.40;;;;;;;6.32;69.62;93428.59;5070236;28;20174;-66
2023/12/23 00:58:43;;;;;;;0.30;0.30;;;;;;;6.24;71.44;93428.91;5070341;28;20625;-67
2023/12/23 01:01:08;;;;;;;0.40;0.40;;;;;;;6.00;72.39;93433.19;5069510;28;20194;-67
2023/12/23 01:03:34;;;;;;;0.53;0.53;;;;;;;5.78;72.49;93391.03;5070216;28;20555;-67
2023/12/23 01:05:59;;;;;;;0.30;0.30;;;;;;;5.90;73.64;93406.78;5070577;28;20170;-67
2023/12/23 01:08:25;;;;;;;0.73;0.73;;;;;;;5.86;73.28;93403.00;5070056;28;20192;-66
2023/12/23 01:10:51;;;;;;;0.40;0.40;;;;;;;5.90;73.69;93412.00;5069984;28;20228;-67
2023/12/23 01:13:16;;;;;;;0.40;0.40;;;;;;;5.69;73.96;93382.72;5070002;28;20175;-67
2023/12/23 01:15:42;;;;;;;0.40;0.40;;;;;;;5.77;73.69;93365.94;5070323;28;20288;-67
2023/12/23 01:18:07;;;;;;;0.30;0.30;;;;;;;6.16;71.64;93382.97;5069931;28;20173;-67
2023/12/23 01:20:33;;;;;;;0.30;0.30;;;;;;;6.37;70.52;93361.63;5069827;28;20187;-67
2023/12/23 01:22:58;;;;;;;0.40;0.40;;;;;;;6.50;69.41;93315.38;5070076;28;20216;-67
2023/12/23 01:25:23;;;;;;;0.37;0.37;;;;;;;6.78;67.75;93328.63;5070230;28;20177;-67
2023/12/23 01:27:49;;;;;;;0.30;0.30;;;;;;;6.96;67.71;93339.00;5069812;28;20675;-67
2023/12/23 01:30:15;;;;;;;0.40;0.40;;;;;;;7.06;66.53;93320.94;5069871;28;20302;-67
2023/12/23 01:32:40;;;;;;;0.30;0.30;;;;;;;7.26;65.77;93336.31;5069945;28;20182;-67
2023/12/23 01:35:06;;;;;;;0.40;0.40;;;;;;;7.40;64.67;93316.72;5069930;28;20178;-67
2023/12/23 01:37:31;;;;;;;0.40;0.40;;;;;;;7.52;65.07;93317.50;5069530;28;20232;-67
2023/12/23 01:39:57;;;;;;;0.40;0.40;;;;;;;7.50;64.87;93298.63;5069768;28;20206;-67
2023/12/23 01:42:22;;;;;;;0.40;0.40;;;;;;;7.44;65.79;93306.56;5069072;28;20206;-67
2023/12/23 01:44:48;;;;;;;0.30;0.30;;;;;;;7.31;66.16;93307.63;5069908;28;20178;-67
2023/12/23 01:47:14;;;;;;;0.30;0.30;;;;;;;7.32;66.60;93314.47;5069788;28;20206;-67
2023/12/23 01:49:41;;;;;;;0.40;0.40;;;;;;;7.20;66.11;93269.19;5051874;28;20745;-66
2023/12/23 01:52:06;;;;;;;0.30;0.30;;;;;;;7.30;66.38;93305.22;5069866;28;21036;-66
2023/12/23 01:54:32;;;;;;;0.40;0.40;;;;;;;7.26;66.83;93304.13;5069700;28;20277;-66
2023/12/23 01:56:58;;;;;;;0.40;0.40;;;;;;;7.29;66.85;93273.03;5069665;28;20174;-66
2023/12/23 01:59:24;;;;;;;45.30;3.80;;;;;;;7.42;65.54;93277.25;5069588;28;20281;-67
2023/12/23 02:01:51;;;;;;;0.40;0.40;;;;;;;7.40;65.35;93261.75;5069442;28;20269;-68
2023/12/23 02:04:17;;;;;;;0.40;0.40;;;;;;;7.63;65.38;93271.38;5069695;28;20567;-67
2023/12/23 02:06:43;;;;;;;0.80;0.80;;;;;;;7.74;65.18;93275.00;5069496;28;20196;-66
2023/12/23 02:09:08;;;;;;;0.40;0.40;;;;;;;7.72;64.48;93277.03;5069597;28;20174;-67
2023/12/23 02:11:37;;;;;;;0.50;0.50;;;;;;;7.66;64.47;93283.22;5069374;28;20174;-67
2023/12/23 02:14:26;;;;;;;0.40;0.40;;;;;;;7.53;65.31;93265.94;5069432;28;20565;-67
2023/12/23 02:16:53;;;;;;;0.30;0.30;;;;;;;7.59;64.50;93259.78;5069563;28;20183;-67
2023/12/23 02:19:18;;;;;;;0.30;0.30;;;;;;;7.73;64.02;93289.13;5069260;28;20243;-67
2023/12/23 02:21:44;;;;;;;0.40;0.40;;;;;;;7.65;64.47;93282.41;5069340;28;20174;-67
2023/12/23 02:24:09;;;;;;;0.30;0.30;;;;;;;7.62;64.62;93264.53;5069406;28;20173;-67
2023/12/23 02:26:37;;;;;;;0.30;0.30;;;;;;;7.89;63.59;93278.69;5069323;28;20224;-67
2023/12/23 02:29:03;;;;;;;0.40;0.40;;;;;;;7.92;63.84;93285.31;5069422;28;20633;-67
2023/12/23 02:31:31;;;;;;;0.40;0.40;;;;;;;7.87;63.52;93257.19;5069276;28;20175;-67
2023/12/23 02:33:59;;;;;;;0.30;0.30;;;;;;;7.88;63.80;93253.53;5069277;28;20188;-67
2023/12/23 02:36:24;;;;;;;0.40;0.40;;;;;;;7.93;63.55;93243.16;5067369;28;20186;-67
2023/12/23 02:38:50;;;;;;;0.47;0.47;;;;;;;7.94;63.20;93250.00;5069023;28;20219;-67
2023/12/23 02:41:16;;;;;;;0.40;0.40;;;;;;;7.95;63.07;93246.34;5069153;28;20579;-67
2023/12/23 02:43:41;;;;;;;0.50;0.50;;;;;;;8.00;62.72;93243.00;5069073;28;20181;-67
2023/12/23 02:46:06;;;;;;;0.30;0.30;;;;;;;8.01;62.87;93254.28;5069317;28;20209;-67
2023/12/23 02:48:32;;;;;;;0.40;0.40;;;;;;;7.90;63.07;93253.31;5069054;28;20205;-68
2023/12/23 02:50:57;;;;;;;0.40;0.40;;;;;;;7.83;63.69;93208.13;5069006;28;20240;-68
2023/12/23 02:53:23;;;;;;;0.40;0.40;;;;;;;8.01;62.25;93223.66;5070402;28;20699;-67
2023/12/23 02:55:48;;;;;;;0.40;0.40;;;;;;;8.17;62.26;93216.84;5072931;28;20682;-67
2023/12/23 02:58:14;;;;;;;0.30;0.30;;;;;;;8.16;61.99;93230.97;5072882;28;20902;-67
2023/12/23 03:00:39;;;;;;;0.40;0.40;;;;;;;8.14;61.87;93214.69;5072736;28;20226;-67
2023/12/23 03:03:05;;;;;;;0.30;0.30;;;;;;;8.19;61.26;93231.31;5072557;28;20177;-67
2023/12/23 03:05:30;;;;;;;0.40;0.40;;;;;;;8.17;61.82;93254.31;5072783;28;20170;-67
2023/12/23 03:07:56;;;;;;;0.30;0.30;;;;;;;8.13;61.63;93262.91;5072649;28;20254;-67
2023/12/23 03:10:21;;;;;;;0.30;0.30;;;;;;;8.14;61.55;93272.34;5072663;28;20186;-67
2023/12/23 03:12:47;;;;;;;0.40;0.40;;;;;;;8.08;61.61;93270.66;5054484;28;20179;-67
2023/12/23 03:15:13;;;;;;;0.40;0.40;;;;;;;8.08;62.31;93268.03;5072355;28;20269;-67
2023/12/23 03:17:38;;;;;;;0.30;0.30;;;;;;;8.12;61.81;93266.56;5072509;28;20178;-67
2023/12/23 03:20:04;;;;;;;0.30;0.30;;;;;;;8.12;62.75;93266.56;5072285;28;20202;-67
2023/12/23 03:22:30;;;;;;;0.50;0.50;;;;;;;7.58;65.28;93266.06;5054330;28;20182;-67
2023/12/23 03:24:56;;;;;;;0.30;0.30;;;;;;;7.50;66.11;93279.50;5072391;28;20171;-67
2023/12/23 03:27:21;;;;;;;0.53;0.53;;;;;;;7.21;67.15;93270.78;5072141;28;20190;-67
2023/12/23 03:29:47;;;;;;;0.40;0.40;;;;;;;7.08;68.16;93261.34;5072031;28;20158;-67
2023/12/23 03:32:12;;;;;;;0.30;0.30;;;;;;;6.42;71.92;93230.28;5072317;28;20182;-67
2023/12/23 03:34:40;;;;;;;0.43;0.43;;;;;;;5.90;72.61;93218.81;5072116;28;20166;-67
2023/12/23 03:37:05;;;;;;;0.30;0.30;;;;;;;5.58;75.29;93257.34;5072074;28;20282;-67
2023/12/23 03:39:31;;;;;;;0.33;0.33;;;;;;;5.40;76.92;93263.38;5071818;28;20792;-67
2023/12/23 03:41:56;;;;;;;0.40;0.40;;;;;;;5.18;77.76;93228.34;5071845;28;20174;-67
2023/12/23 03:44:22;;;;;;;0.40;0.40;;;;;;;5.27;77.20;93238.25;5071734;28;20170;-67
2023/12/23 03:46:47;;;;;;;0.40;0.40;;;;;;;5.31;76.29;93217.75;5071840;28;20170;-67
2023/12/23 03:49:13;;;;;;;0.40;0.40;;;;;;;5.50;75.74;93248.00;5071740;28;20174;-67
2023/12/23 03:51:38;;;;;;;0.30;0.30;;;;;;;5.54;75.87;93237.91;5071856;28;20178;-67
2023/12/23 03:54:04;;;;;;;0.40;0.40;;;;;;;5.41;76.35;93212.81;5072047;28;20762;-67
2023/12/23 03:56:30;;;;;;;0.87;0.60;;;;;;;5.63;73.89;93224.34;5071587;28;20167;-67
2023/12/23 03:58:55;;;;;;;0.50;0.50;;;;;;;5.79;73.79;93222.97;5071766;28;20170;-67
2023/12/23 04:01:21;;;;;;;1.00;0.77;;;;;;;6.04;72.23;93213.19;5071484;28;20194;-67
2023/12/23 04:03:46;;;;;;;0.40;0.40;;;;;;;6.48;67.18;93189.41;5071617;28;20219;-67
2023/12/23 04:06:12;;;;;;;0.40;0.40;;;;;;;7.01;65.70;93204.94;5069427;28;20213;-67
2023/12/23 04:08:41;;;;;;;0.40;0.40;;;;;;;7.28;64.44;93199.97;5071538;28;20171;-67
2023/12/23 04:11:06;;;;;;;0.40;0.40;;;;;;;7.79;62.07;93201.75;5071454;28;20167;-67
2023/12/23 04:13:32;;;;;;;0.40;0.40;;;;;;;8.05;60.87;93200.38;5071247;28;20175;-67
2023/12/23 04:15:57;;;;;;;0.57;0.57;;;;;;;8.12;60.36;93211.53;5071524;28;20242;-67
2023/12/23 04:18:23;;;;;;;0.40;0.40;;;;;;;8.25;60.41;93222.50;5071317;28;20247;-67
2023/12/23 04:20:48;;;;;;;0.77;0.77;;;;;;;8.29;59.66;93233.31;5069638;28;20202;-67
2023/12/23 04:23:13;;;;;;;2.20;0.60;;;;;;;8.40;59.81;93245.56;5069731;28;20666;-67
2023/12/23 04:25:39;;;;;;;0.60;0.60;;;;;;;8.42;59.52;93251.38;5071020;28;20564;-67
2023/12/23 04:28:05;;;;;;;0.47;0.47;;;;;;;8.48;59.30;93226.03;5071154;28;20199;-67
2023/12/23 04:30:31;;;;;;;0.40;0.40;;;;;;;8.63;58.51;93210.56;5069757;28;20162;-67
2023/12/23 04:32:56;;;;;;;0.50;0.50;;;;;;;8.68;57.75;93202.75;5069087;28;20181;-67
2023/12/23 04:35:22;;;;;;;0.40;0.40;;;;;;;8.84;57.19;93191.44;5067904;28;20181;-67
2023/12/23 04:37:47;;;;;;;0.40;0.40;;;;;;;8.81;56.97;93207.69;5068843;28;20680;-67
2023/12/23 04:40:13;;;;;;;0.30;0.30;;;;;;;8.83;57.45;93210.84;5070705;28;20237;-67
2023/12/23 04:42:38;;;;;;;0.97;0.97;;;;;;;8.84;57.05;93240.50;5070610;28;20183;-67
2023/12/23 04:45:04;;;;;;;0.77;0.77;;;;;;;8.85;57.59;93244.72;5070507;28;20178;-67
2023/12/23 04:47:30;;;;;;;0.40;0.40;;;;;;;8.97;56.78;93224.44;5070696;28;20173;-67
2023/12/23 04:49:55;;;;;;;0.37;0.37;;;;;;;9.01;56.55;93231.56;5070520;28;20695;-66
2023/12/23 04:52:21;;;;;;;0.40;0.40;;;;;;;9.02;55.86;93224.50;5071002;28;20619;-67
2023/12/23 04:54:46;;;;;;;0.30;0.30;;;;;;;9.17;55.68;93243.06;5052841;28;20198;-67
2023/12/23 04:57:12;;;;;;;0.30;0.30;;;;;;;9.21;56.11;93253.88;5070309;28;20182;-67
2023/12/23 04:59:37;;;;;;;0.30;0.30;;;;;;;9.21;55.91;93249.44;5070436;28;20213;-67
2023/12/23 05:02:06;;;;;;;0.40;0.40;;;;;;;9.21;56.05;93278.31;5052539;28;20265;-67
2023/12/23 05:04:31;;;;;;;0.50;0.50;;;;;;;9.17;56.12;93292.94;5069376;28;20713;-67
2023/12/23 05:07:00;;;;;;;0.70;0.70;;;;;;;9.17;56.25;93298.19;5069955;28;20198;-68
2023/12/23 05:09:25;;;;;;;0.50;0.50;;;;;;;9.23;56.04;93291.19;5069666;28;20162;-68
2023/12/23 05:11:51;;;;;;;0.30;0.30;;;;;;;9.31;55.78;93280.28;5069710;28;20207;-68
2023/12/23 05:14:16;;;;;;;0.30;0.30;;;;;;;9.33;56.21;93280.84;5069887;28;20209;-68
2023/12/23 05:16:41;;;;;;;0.40;0.40;;;;;;;9.25;56.15;93271.56;5069181;28;20178;-68
2023/12/23 05:19:07;;;;;;;0.40;0.40;;;;;;;9.16;55.81;93290.56;5069650;28;20181;-68
2023/12/23 05:21:32;;;;;;;0.40;0.40;;;;;;;9.20;56.09;93289.84;5068413;28;20271;-67
2023/12/23 05:23:58;;;;;;;0.30;0.30;;;;;;;9.22;56.10;93318.47;5069653;28;20186;-67
2023/12/23 05:26:23;;;;;;;0.60;0.60;;;;;;;8.94;56.66;93285.25;5069993;28;20210;-67
2023/12/23 05:28:49;;;;;;;1.30;0.60;;;;;;;9.00;56.93;93318.41;5069762;28;20181;-67
2023/12/23 05:31:14;;;;;;;0.40;0.40;;;;;;;8.93;57.39;93310.69;5070029;28;20247;-67
2023/12/23 05:33:40;;;;;;;0.50;0.50;;;;;;;9.03;57.55;93316.09;5070020;28;20736;-67
2023/12/23 05:36:06;;;;;;;0.40;0.40;;;;;;;9.02;57.51;93298.75;5069880;28;20180;-67
2023/12/23 05:38:32;;;;;;;0.40;0.40;;;;;;;9.11;57.10;93301.78;5069786;28;20250;-66
2023/12/23 05:40:57;;;;;;;0.40;0.40;;;;;;;9.12;57.26;93299.94;5069566;28;20198;-67
2023/12/23 05:43:22;;;;;;;0.53;0.53;;;;;;;8.94;57.39;93282.63;5069150;28;20174;-68
2023/12/23 05:45:48;;;;;;;0.40;0.40;;;;;;;8.93;58.18;93292.31;5069252;28;20244;-68
2023/12/23 05:48:14;;;;;;;1.00;0.53;;;;;;;8.93;58.03;93294.94;5069315;28;20639;-66
2023/12/23 05:50:39;;;;;;;6.53;0.70;;;;;;;8.90;57.94;93287.56;5069515;28;20175;-67
2023/12/23 05:53:05;;;;;;;5.73;0.93;;;;;;;8.90;57.78;93305.94;5069715;28;20167;-67
2023/12/23 05:55:31;;;;;;;0.50;0.50;;;;;;;8.89;58.29;93314.03;5069536;28;20178;-67
2023/12/23 05:57:56;;;;;;;0.40;0.40;;;;;;;9.00;58.50;93302.66;5069668;28;20166;-67
2023/12/23 06:00:22;;;;;;;1.23;1.23;;;;;;;9.03;58.17;93296.94;5069485;28;20225;-67
2023/12/23 06:02:47;;;;;;;0.50;0.50;;;;;;;9.05;58.38;93315.88;5068142;28;20166;-67
2023/12/23 06:05:13;;;;;;;0.40;0.40;;;;;;;9.03;58.90;93310.06;5069544;28;20220;-67
2023/12/23 06:07:38;;;;;;;0.40;0.40;;;;;;;9.01;58.25;93310.28;5069318;28;20185;-67
2023/12/23 06:10:05;;;;;;;0.50;0.50;;;;;;;9.09;58.15;93309.09;5051319;28;20647;-67
2023/12/23 06:12:30;;;;;;;0.33;0.33;;;;;;;9.02;58.29;93309.25;5064380;28;20177;-66
2023/12/23 06:14:57;;;;;;;0.40;0.40;;;;;;;9.04;58.97;93317.69;5069182;28;20921;-68
2023/12/23 06:17:23;;;;;;;1.10;1.10;;;;;;;9.09;58.25;93330.09;5069050;28;20175;-67
2023/12/23 06:19:48;;;;;;;0.40;0.40;;;;;;;9.13;58.23;93330.41;5068730;28;20232;-67
2023/12/23 06:22:14;;;;;;;0.60;0.60;;;;;;;9.26;58.13;93341.38;5068821;28;20177;-66
2023/12/23 06:24:39;;;;;;;0.50;0.50;;;;;;;9.12;58.75;93298.13;5069371;28;20171;-67
2023/12/23 06:27:05;;;;;;;0.53;0.53;;;;;;;9.21;58.70;93335.25;5068535;28;20217;-67
2023/12/23 06:29:30;;;;;;;0.30;0.30;;;;;;;9.28;58.77;93331.44;5072350;28;20170;-67
2023/12/23 06:31:57;;;;;;;0.83;0.50;;;;;;;9.33;58.92;93331.53;5073130;28;20202;-67
2023/12/23 06:34:23;;;;;;;0.50;0.50;;;;;;;9.26;59.10;93330.06;5072931;28;20627;-67
2023/12/23 06:36:48;;;;;;;0.40;0.40;;;;;;;9.24;59.64;93317.22;5073155;28;20253;-67
2023/12/23 06:39:13;;;;;;;5.30;0.70;;;;;;;9.20;59.50;93304.78;5071409;28;20210;-67
2023/12/23 06:41:39;;;;;;;0.40;0.40;;;;;;;9.12;59.39;93250.09;5073209;28;20260;-66
2023/12/23 06:44:04;;;;;;;0.90;0.90;;;;;;;9.15;59.69;93268.78;5055134;28;20181;-67
2023/12/23 06:46:30;;;;;;;0.30;0.30;;;;;;;9.33;59.42;93302.66;5072880;28;20170;-67
2023/12/23 06:48:55;;;;;;;0.70;0.70;;;;;;;9.49;59.50;93329.13;5072646;28;20190;-67
2023/12/23 06:51:21;;;;;;;0.40;0.40;;;;;;;9.51;59.27;93333.09;5055277;28;20170;-68
2023/12/23 06:53:49;;;;;;;0.40;0.40;;;;;;;9.48;59.20;93327.53;5073053;28;20546;-67
2023/12/23 06:56:15;;;;;;;0.50;0.50;;;;;;;9.58;59.34;93333.72;5072615;28;20290;-67
2023/12/23 06:58:42;;;;;;;0.40;0.40;;;;;;;9.58;59.27;93335.53;5072834;28;20612;-67
2023/12/23 07:01:07;;;;;;;1.20;1.17;;;;;;;9.65;59.12;93344.84;5072408;28;20190;-67
2023/12/23 07:03:33;;;;;;;0.70;0.70;;;;;;;9.36;59.11;93323.16;5072596;28;20175;-67
2023/12/23 07:05:58;;;;;;;0.90;0.90;;;;;;;9.53;59.56;93346.75;5054799;28;20223;-66
2023/12/23 07:08:24;;;;;;;0.40;0.40;;;;;;;9.72;59.24;93347.28;5072166;28;20182;-66
2023/12/23 07:10:50;;;;;;;0.50;0.50;;;;;;;9.73;59.27;93349.69;5054489;28;20266;-67
2023/12/23 07:13:15;;;;;;;3.60;0.80;;;;;;;9.68;59.10;93348.81;5053151;28;20227;-66
2023/12/23 07:15:41;;;;;;;0.53;0.53;;;;;;;9.56;59.39;93342.88;5072495;28;20664;-66
2023/12/23 07:18:09;;;;;;;4.93;0.60;;;;;;;9.69;59.24;93366.16;5072466;28;20179;-66
2023/12/23 07:20:34;;;;;;;0.80;0.80;;;;;;;9.51;59.56;93329.69;5021206;28;20190;-66
2023/12/23 07:23:00;;;;;;;0.67;0.60;;;;;;;9.77;59.56;93369.16;5072351;28;20189;-69
2023/12/23 07:25:25;;;;;;;0.40;0.40;;;;;;;9.80;59.35;93371.31;5072123;28;20212;-66
2023/12/23 07:27:51;;;;;;;0.97;0.97;;;;;;;9.94;59.16;93368.34;5072121;28;20209;-66
2023/12/23 07:30:16;;;;;;;0.50;0.50;;;;;;;10.34;58.28;93375.97;5072177;28;20216;-66
2023/12/23 07:32:42;;;;;;;0.90;0.90;;;;;;;11.04;56.49;93377.72;5072133;28;20257;-67
2023/12/23 07:35:07;;;;;;;0.50;0.50;;;;;;;11.10;56.23;93382.78;5072070;28;20669;-66
2023/12/23 07:37:33;;;;;;;0.50;0.50;;;;;;;11.30;56.15;93390.09;5071725;28;20248;-66
2023/12/23 07:39:58;;;;;;;0.57;0.57;;;;;;;11.44;55.16;93399.13;5070117;28;20209;-67
2023/12/23 07:42:24;;;;;;;1.40;0.60;;;;;;;11.34;55.95;93388.50;5071300;28;20182;-67
2023/12/23 07:44:49;;;;;;;0.60;0.57;;;;;;;11.33;55.75;93393.00;5071472;28;20178;-67
2023/12/23 07:47:15;;;;;;;0.77;0.67;;;;;;;11.64;55.21;93383.50;5071328;28;20182;-67
2023/12/23 07:49:40;;;;;;;0.50;0.50;;;;;;;12.06;54.35;93386.13;5071440;28;20178;-67
2023/12/23 07:52:07;;;;;;;0.40;0.40;;;;;;;12.17;54.09;93397.53;5071297;28;20178;-67
2023/12/23 07:54:33;;;;;;;0.40;0.40;;;;;;;12.24;54.23;93403.38;5071654;28;20182;-67
2023/12/23 07:56:58;;;;;;;0.83;0.83;;;;;;;12.86;53.49;93384.06;5071622;28;20213;-67
2023/12/23 07:59:24;;;;;;;1.53;1.43;;;;;;;15.97;48.23;93410.13;5071306;28;20174;-67
2023/12/23 08:01:49;;;;;;;0.77;0.77;;;;;;;16.17;42.93;93401.94;5071590;28;20231;-67
2023/12/23 08:04:16;;;;;;;0.40;0.40;;;;;;;15.51;45.36;93406.22;5071430;28;20178;-67
2023/12/23 08:06:41;;;;;;;0.30;0.30;;;;;;;15.03;46.04;93428.00;5071261;28;20182;-67
2023/12/23 08:09:08;;;;;;;0.80;0.80;;;;;;;15.73;44.53;93422.53;5071241;28;20174;-67
2023/12/23 08:11:34;;;;;;;1.07;0.77;;;;;;;17.75;41.30;93431.91;5071263;28;20240;-67
2023/12/23 08:14:00;;;;;;;0.70;0.70;;;;;;;18.79;37.79;93451.69;5070968;28;20182;-67
2023/12/23 08:16:26;;;;;;;0.47;0.47;;;;;;;19.70;35.31;93427.69;5070737;28;20175;-67
2023/12/23 08:18:52;;;;;;;0.50;0.50;;;;;;;20.00;35.07;93422.69;5070715;28;20252;-67
2023/12/23 08:21:17;;;;;;;0.50;0.50;;;;;;;19.76;34.22;93455.03;5071007;28;20202;-68
2023/12/23 08:23:43;;;;;;;0.60;0.60;;;;;;;19.82;34.25;93489.34;5070723;28;20697;-68
2023/12/23 08:26:08;;;;;;;0.40;0.40;;;;;;;18.58;35.62;93447.06;5052785;28;20259;-68
2023/12/23 08:28:34;;;;;;;0.40;0.40;;;;;;;17.12;38.19;93483.56;5070254;28;20681;-68
2023/12/23 08:31:02;;;;;;;0.40;0.40;;;;;;;15.74;41.31;93493.88;5070371;28;20182;-68
2023/12/23 08:33:28;;;;;;;0.57;0.57;;;;;;;14.65;43.78;93511.59;5069248;28;20224;-68
2023/12/23 08:35:55;;;;;;;0.30;0.30;;;;;;;13.87;45.96;93563.22;5070632;28;20668;-68
2023/12/23 08:38:20;;;;;;;0.30;0.30;;;;;;;13.21;48.08;93563.84;5070408;28;20699;-68
2023/12/23 08:40:46;;;;;;;0.40;0.40;;;;;;;12.76;49.52;93588.16;5070373;28;20194;-68
2023/12/23 08:43:12;;;;;;;0.70;0.70;;;;;;;12.18;52.83;93594.34;5070614;28;20174;-68
2023/12/23 08:45:38;;;;;;;3.60;3.17;;;;;;;11.54;55.34;93572.34;5070655;28;20628;-68
2023/12/23 08:48:04;;;;;;;1.80;1.43;;;;;;;11.25;56.60;93574.41;5070558;28;20179;-67
2023/12/23 08:50:29;;;;;;;1.40;0.50;;;;;;;11.23;58.45;93600.22;5070385;28;20196;-68
2023/12/23 08:52:55;;;;;;;0.40;0.40;;;;;;;11.03;59.06;93594.69;5070344;28;20185;-67
2023/12/23 08:55:23;;;;;;;1.20;0.70;;;;;;;10.65;61.10;93606.00;5070424;28;20175;-67
2023/12/23 08:57:49;;;;;;;0.53;0.53;;;;;;;10.40;62.46;93638.81;5070355;28;20182;-67
2023/12/23 09:00:15;;;;;;;0.40;0.40;;;;;;;10.21;63.83;93643.50;5070190;28;20206;-67
2023/12/23 09:02:40;;;;;;;0.67;0.67;;;;;;;10.25;64.10;93648.28;5070358;28;20178;-67
2023/12/23 09:05:06;;;;;;;0.47;0.47;;;;;;;10.00;66.11;93646.00;5070210;28;20174;-67
2023/12/23 09:07:32;;;;;;;0.60;0.60;;;;;;;9.99;67.67;93647.84;5052477;28;20851;-67
2023/12/23 09:09:57;;;;;;;4.63;1.60;;;;;;;9.45;69.45;93615.84;5070477;28;20189;-67
2023/12/23 09:12:23;;;;;;;0.53;0.53;;;;;;;9.30;71.25;93615.56;5051855;28;20301;-67
2023/12/23 09:14:52;;;;;;;0.50;0.50;;;;;;;9.56;70.92;93645.75;5069901;28;20198;-67
2023/12/23 09:17:17;;;;;;;1.17;0.87;;;;;;;9.39;71.66;93647.50;5069494;28;20178;-67
2023/12/23 09:19:42;;;;;;;0.40;0.40;;;;;;;9.39;71.77;93647.50;5069734;28;20668;-67
2023/12/23 09:22:08;;;;;;;0.60;0.60;;;;;;;9.42;71.14;93650.47;5069695;28;20179;-67
2023/12/23 09:24:37;;;;;;;0.40;0.40;;;;;;;9.13;71.86;93667.22;5069861;28;20178;-67
2023/12/23 09:27:02;;;;;;;0.83;0.83;;;;;;;9.12;71.58;93694.47;5068479;28;20674;-67
2023/12/23 09:29:28;;;;;;;0.50;0.50;;;;;;;9.13;71.14;93692.66;5069736;28;20232;-67
2023/12/23 09:31:55;;;;;;;0.50;0.50;;;;;;;9.05;71.26;93667.56;5069467;28;20185;-67
2023/12/23 09:34:20;;;;;;;0.40;0.40;;;;;;;9.07;71.07;93671.56;5051486;28;20493;-66
2023/12/23 09:36:46;;;;;;;0.57;0.57;;;;;;;8.75;71.77;93664.25;5068055;28;20171;-67
2023/12/23 09:39:12;;;;;;;0.53;0.53;;;;;;;9.01;71.74;93711.03;5067056;28;20289;-67
2023/12/23 09:41:40;;;;;;;0.53;0.53;;;;;;;8.78;72.08;93692.69;5069123;28;20206;-66
2023/12/23 09:44:05;;;;;;;1.30;1.10;;;;;;;8.54;73.03;93724.16;5069210;28;20174;-67
2023/12/23 09:46:31;;;;;;;0.83;0.83;;;;;;;8.25;75.16;93774.75;5069293;28;20185;-66
2023/12/23 09:48:57;;;;;;;0.60;0.60;;;;;;;8.25;75.58;93777.38;5069235;28;20174;-67
2023/12/23 09:51:25;;;;;;;0.60;0.60;;;;;;;7.82;78.95;93780.97;5069433;28;20257;-68
2023/12/23 09:53:56;;;;;;;0.40;0.40;;;;;;;7.72;80.89;93787.72;5069612;28;20197;-67
2023/12/23 09:56:22;;;;;;;0.40;0.40;;;;;;;7.62;82.27;93776.97;5051309;28;20174;-67
2023/12/23 09:58:48;;;;;;;0.40;0.40;;;;;;;7.75;82.63;93798.59;5069172;28;20178;-66
2023/12/23 10:01:13;;;;;;;0.60;0.60;;;;;;;7.73;82.59;93807.66;5069118;28;20198;-67
2023/12/23 10:03:39;;;;;;;0.50;0.50;;;;;;;7.63;82.96;93815.22;5066468;28;20178;-67
2023/12/23 10:06:04;;;;;;;0.40;0.40;;;;;;;7.40;83.65;93794.94;5068482;28;20236;-66
2023/12/23 10:08:30;;;;;;;0.70;0.70;;;;;;;7.20;84.83;93798.56;5068996;28;20601;-66
2023/12/23 10:10:55;;;;;;;0.50;0.50;;;;;;;7.25;85.47;93797.91;5068993;28;20205;-66
2023/12/23 10:13:21;;;;;;;0.40;0.40;;;;;;;7.22;85.38;93792.31;5069368;28;20186;-66
2023/12/23 10:15:47;;;;;;;0.50;0.50;;;;;;;7.39;85.21;93858.78;5068850;28;20178;-66
2023/12/23 10:18:12;;;;;;;1.63;1.53;;;;;;;7.31;85.14;93864.28;5067077;28;20222;-66
2023/12/23 10:20:38;;;;;;;1.53;1.50;;;;;;;7.20;84.84;93831.78;5067649;28;20929;-66
2023/12/23 10:23:04;;;;;;;0.60;0.60;;;;;;;7.25;84.78;93862.53;5068583;28;20171;-66
2023/12/23 10:25:30;;;;;;;0.30;0.30;;;;;;;7.21;84.72;93856.94;5067837;28;20647;-66
2023/12/23 10:28:00;;;;;;;0.30;0.30;;;;;;;7.42;84.61;93866.22;5068667;28;20284;-66
2023/12/23 10:30:29;;;;;;;0.40;0.40;;;;;;;7.38;83.19;93881.53;5067213;28;20178;-66
2023/12/23 10:33:03;;;;;;;0.40;0.40;;;;;;;7.47;83.05;93871.59;5067861;28;20565;-69
2023/12/23 10:35:33;;;;;;;0.50;0.50;;;;;;;7.48;83.26;93862.72;5068330;28;20178;-68
2023/12/23 10:38:02;;;;;;;0.77;0.77;;;;;;;7.54;82.94;93877.56;5067987;28;20226;-67
2023/12/23 10:40:28;;;;;;;0.40;0.40;;;;;;;7.50;82.01;93871.97;5067793;28;20191;-69
2023/12/23 10:42:58;;;;;;;1.40;1.40;;;;;;;7.65;82.31;93879.47;5067866;28;20184;-67
2023/12/23 10:45:24;;;;;;;0.50;0.50;;;;;;;7.52;82.07;93890.09;5068463;28;20536;-67
2023/12/23 10:47:52;;;;;;;5.93;1.20;;;;;;;7.37;81.48;93872.09;5067694;28;20170;-68
2023/12/23 10:50:18;;;;;;;0.50;0.50;;;;;;;7.56;81.48;93904.34;5067922;28;20178;-66
2023/12/23 10:52:44;;;;;;;0.50;0.50;;;;;;;7.46;81.89;93896.16;5067964;28;20178;-68
2023/12/23 10:55:10;;;;;;;0.60;0.60;;;;;;;7.42;82.18;93898.44;5068510;28;20175;-66
2023/12/23 10:57:37;;;;;;;0.43;0.43;;;;;;;7.50;82.60;93905.22;5068128;28;20232;-68
2023/12/23 11:00:04;;;;;;;0.40;0.40;;;;;;;7.52;82.96;93914.44;5067404;28;20289;-66
2023/12/23 11:02:30;;;;;;;0.50;0.50;;;;;;;7.62;83.61;93913.94;5067012;28;20266;-68
2023/12/23 11:04:58;;;;;;;0.40;0.40;;;;;;;7.74;83.05;93890.47;5067702;28;20265;-67
2023/12/23 11:07:33;;;;;;;0.30;0.30;;;;;;;7.92;81.97;93909.63;5068046;28;20181;-67
2023/12/23 11:10:01;;;;;;;0.40;0.40;;;;;;;8.04;81.91;93890.56;5068103;28;20650;-66
2023/12/23 11:12:30;;;;;;;0.30;0.30;;;;;;;8.15;81.72;93889.81;5068602;28;20214;-67
2023/12/23 11:14:57;;;;;;;1.83;0.90;;;;;;;8.26;80.21;93894.34;5069305;28;20255;-67
2023/12/23 11:17:27;;;;;;;0.50;0.50;;;;;;;8.28;80.13;93905.41;5072139;28;20265;-67
2023/12/23 11:19:58;;;;;;;2.00;1.80;;;;;;;8.28;79.93;93903.59;5072209;28;20290;-66
2023/12/23 11:22:36;;;;;;;0.40;0.40;;;;;;;8.29;79.20;93907.00;5072500;28;20182;-68
2023/12/23 11:25:02;;;;;;;0.40;0.40;;;;;;;8.21;78.92;93888.97;5072353;28;20532;-68
2023/12/23 11:27:36;;;;;;;0.30;0.30;;;;;;;8.22;77.99;93903.63;5072129;28;20178;-68
2023/12/23 11:30:06;;;;;;;0.40;0.40;;;;;;;8.09;78.98;93857.44;5072610;28;20178;-66
2023/12/23 11:32:37;;;;;;;0.47;0.47;;;;;;;8.27;77.31;93881.00;5066546;28;20189;-68
2023/12/23 11:35:06;;;;;;;0.43;0.43;;;;;;;8.07;77.02;93887.50;5067696;28;20281;-67